Time;durP1;ratioP1;P1;durP2;ratioP2;P2;SDS_P1;SDS_P2;PMS_P1;PMS_P2;Temp;Humidity;BMP_temperature;BMP_pressure;BME280_temperature;BME280_humidity;BME280_pressure;Samples;Min_cycle;Max_cycle;Signal;HPM_P1;HPM_P2
2023/03/27 00:00:44;;;;;;;10.40;3.00;;;;;;;17.73;57.91;99487.88;5052666;28;20514;-63
2023/03/27 00:03:11;;;;;;;9.97;3.10;;;;;;;17.72;58.13;99479.69;5070894;28;20609;-63
2023/03/27 00:05:36;;;;;;;10.50;2.50;;;;;;;17.70;58.12;99482.94;5077179;28;20248;-63
2023/03/27 00:08:02;;;;;;;10.90;3.50;;;;;;;17.73;58.48;99492.75;5059597;28;20434;-63
2023/03/27 00:10:28;;;;;;;7.67;2.10;;;;;;;17.72;57.98;99491.94;5050407;28;20229;-63
2023/03/27 00:12:54;;;;;;;11.50;3.00;;;;;;;17.71;58.44;99504.56;5053292;28;21016;-63
2023/03/27 00:15:20;;;;;;;5.80;1.73;;;;;;;17.71;58.00;99504.56;5050540;28;20634;-63
2023/03/27 00:17:46;;;;;;;14.43;3.00;;;;;;;17.70;58.15;99502.94;5050224;28;20574;-63
2023/03/27 00:20:16;;;;;;;12.80;4.07;;;;;;;17.69;57.98;99515.56;5052103;28;20462;-63
2023/03/27 00:22:42;;;;;;;9.30;2.30;;;;;;;17.68;57.87;99510.25;5050025;28;20791;-63
2023/03/27 00:25:09;;;;;;;9.00;2.93;;;;;;;17.65;58.21;99519.63;5034966;28;20417;-63
2023/03/27 00:27:34;;;;;;;9.63;3.20;;;;;;;17.65;58.15;99517.56;5069726;28;20178;-63
2023/03/27 00:30:00;;;;;;;7.73;2.67;;;;;;;17.63;58.31;99527.72;5050475;28;20449;-63
2023/03/27 00:32:26;;;;;;;8.60;3.30;;;;;;;17.64;58.20;99535.91;5051969;28;20181;-63
2023/03/27 00:34:51;;;;;;;6.57;2.20;;;;;;;17.66;58.30;99544.88;5070095;28;21024;-63
2023/03/27 00:37:16;;;;;;;7.77;2.67;;;;;;;17.69;58.07;99555.53;5070022;28;20186;-63
2023/03/27 00:39:42;;;;;;;9.30;2.30;;;;;;;17.72;57.89;99548.22;5059986;28;20191;-63
2023/03/27 00:42:11;;;;;;;9.10;2.33;;;;;;;17.69;58.14;99554.69;5055982;28;20190;-63
2023/03/27 00:44:37;;;;;;;7.40;2.67;;;;;;;17.69;58.16;99560.41;5033316;28;20581;-63
2023/03/27 00:47:02;;;;;;;11.50;2.13;;;;;;;17.69;57.95;99572.66;5069972;28;20425;-63
2023/03/27 00:49:30;;;;;;;6.70;2.07;;;;;;;17.70;58.25;99576.34;5051943;28;20185;-63
2023/03/27 00:51:57;;;;;;;6.43;2.30;;;;;;;17.69;58.16;99577.53;5069487;28;20235;-63
2023/03/27 00:54:25;;;;;;;6.83;2.20;;;;;;;17.71;58.15;99566.56;5047630;28;20453;-63
2023/03/27 00:56:54;;;;;;;6.93;2.13;;;;;;;17.71;58.14;99581.63;5050960;28;20421;-63
2023/03/27 00:59:21;;;;;;;7.07;2.40;;;;;;;17.70;57.94;99567.78;5049288;28;20410;-63
2023/03/27 01:01:46;;;;;;;7.17;2.03;;;;;;;17.70;57.95;99582.06;5054234;28;20813;-63
2023/03/27 01:04:11;;;;;;;8.53;1.93;;;;;;;17.70;57.73;99585.72;5052941;28;20497;-63
2023/03/27 01:06:37;;;;;;;5.23;2.07;;;;;;;17.71;58.11;99589.41;5073418;28;20207;-63
2023/03/27 01:09:03;;;;;;;5.20;1.70;;;;;;;17.70;58.07;99591.41;5049772;28;20164;-63
2023/03/27 01:11:43;;;;;;;12.97;2.57;;;;;;;17.71;58.26;99603.66;5058481;28;20190;-63
2023/03/27 01:14:50;;;;;;;7.87;2.27;;;;;;;17.72;58.10;99614.69;5052663;28;20397;-63
2023/03/27 01:17:31;;;;;;;6.60;1.90;;;;;;;17.69;57.97;99612.63;5034887;28;20465;-63
2023/03/27 01:20:15;;;;;;;7.63;2.03;;;;;;;17.70;58.03;99619.97;5054757;28;20918;-63
2023/03/27 01:22:46;;;;;;;10.17;2.33;;;;;;;17.71;57.92;99629.38;5066195;28;20409;-63
2023/03/27 01:25:47;;;;;;;7.60;1.90;;;;;;;17.68;58.04;99628.09;5054275;28;20445;-63
2023/03/27 01:28:36;;;;;;;5.73;2.00;;;;;;;17.69;58.12;99635.44;5026113;28;20432;-63
2023/03/27 01:31:19;;;;;;;6.00;2.10;;;;;;;17.67;58.29;99646.47;5031180;28;20457;-63
2023/03/27 01:34:18;;;;;;;12.70;3.10;;;;;;;17.69;58.06;99646.03;5051641;28;20440;-63
2023/03/27 01:36:54;;;;;;;7.17;2.70;;;;;;;17.68;58.07;99644.41;5063959;28;20413;-63
2023/03/27 01:39:42;;;;;;;6.47;1.80;;;;;;;17.65;58.27;99663.13;5051777;28;20428;-63
2023/03/27 01:42:08;;;;;;;6.80;2.03;;;;;;;17.66;58.40;99661.91;5048761;28;20952;-63
2023/03/27 01:44:38;;;;;;;4.13;1.53;;;;;;;17.67;58.42;99666.44;5068033;28;20433;-63
2023/03/27 01:47:08;;;;;;;6.57;1.67;;;;;;;17.65;58.27;99668.84;5055612;28;20158;-63
2023/03/27 01:49:45;;;;;;;7.90;1.93;;;;;;;17.67;58.36;99677.84;5045613;28;20453;-63
2023/03/27 01:52:16;;;;;;;5.13;1.73;;;;;;;17.64;57.88;99678.63;5056492;28;20488;-63
2023/03/27 01:54:43;;;;;;;7.73;1.73;;;;;;;17.68;57.90;99681.50;5035599;28;20545;-63
2023/03/27 01:57:16;;;;;;;7.67;2.40;;;;;;;17.65;58.23;99688.03;5055403;28;20786;-63
2023/03/27 01:59:44;;;;;;;8.20;2.40;;;;;;;17.64;57.91;99692.91;5038779;28;20779;-63
2023/03/27 02:02:12;;;;;;;4.70;1.80;;;;;;;17.60;58.38;99709.16;5041579;28;20460;-63
2023/03/27 02:05:05;;;;;;;6.20;2.20;;;;;;;17.56;57.98;99711.13;5046049;28;20411;-63
2023/03/27 02:07:33;;;;;;;6.47;1.80;;;;;;;17.58;58.19;99714.44;5038062;28;20511;-63
2023/03/27 02:10:02;;;;;;;8.43;2.27;;;;;;;17.60;57.91;99720.56;5054784;28;21155;-63
2023/03/27 02:12:37;;;;;;;5.70;1.73;;;;;;;17.60;58.13;99729.13;5042164;28;20442;-63
2023/03/27 02:15:06;;;;;;;8.93;2.10;;;;;;;17.59;57.93;99733.19;5018681;28;20472;-63
2023/03/27 02:17:33;;;;;;;8.70;4.00;;;;;;;17.69;57.87;99743.09;5035127;28;20470;-63
2023/03/27 02:20:08;;;;;;;12.73;1.83;;;;;;;17.74;57.49;99745.59;5037456;28;20457;-63
2023/03/27 02:22:33;;;;;;;6.33;2.13;;;;;;;17.69;57.52;99743.94;5036040;28;20409;-63
2023/03/27 02:24:59;;;;;;;5.07;1.57;;;;;;;17.66;57.81;99749.59;5034871;28;20743;-63
2023/03/27 02:27:41;;;;;;;3.80;1.67;;;;;;;17.60;57.85;99760.53;5067964;28;20654;-63
2023/03/27 02:30:16;;;;;;;6.63;2.33;;;;;;;17.58;57.93;99765.81;5051202;28;20253;-63
2023/03/27 02:33:05;;;;;;;7.50;2.17;;;;;;;17.60;58.10;99774.81;5046054;28;20794;-63
2023/03/27 02:36:20;;;;;;;8.20;1.90;;;;;;;17.59;57.65;99781.72;5054741;28;20542;-63
2023/03/27 02:39:11;;;;;;;4.83;1.50;;;;;;;17.64;57.63;99786.25;4966751;28;20506;-63
2023/03/27 02:41:51;;;;;;;5.37;2.10;;;;;;;17.65;57.80;99785.06;5052381;28;20405;-63
2023/03/27 02:44:26;;;;;;;5.07;1.60;;;;;;;17.64;57.83;99798.50;5019129;28;20497;-63
2023/03/27 02:46:58;;;;;;;6.00;1.73;;;;;;;17.64;57.60;99797.69;5070565;28;20420;-63
2023/03/27 02:49:30;;;;;;;7.30;1.93;;;;;;;17.64;57.57;99812.78;5024554;28;20520;-63
2023/03/27 02:52:23;;;;;;;5.40;2.10;;;;;;;17.61;58.25;99807.84;5040354;28;20474;-63
2023/03/27 02:54:54;;;;;;;7.10;1.77;;;;;;;17.62;57.71;99818.06;5019093;28;20527;-63
2023/03/27 02:57:22;;;;;;;5.67;2.20;;;;;;;17.63;57.85;99819.72;5054183;28;20494;-63
2023/03/27 02:59:51;;;;;;;11.03;2.27;;;;;;;17.60;58.02;99826.19;5034555;28;20406;-63
2023/03/27 03:02:21;;;;;;;7.00;2.00;;;;;;;17.62;58.16;99834.34;5034451;28;20406;-63
2023/03/27 03:04:56;;;;;;;10.63;1.97;;;;;;;17.64;57.63;99847.03;5042299;28;20526;-63
2023/03/27 03:07:23;;;;;;;5.73;1.80;;;;;;;17.62;57.89;99860.03;5046408;28;20951;-63
2023/03/27 03:09:49;;;;;;;4.43;1.80;;;;;;;17.64;57.61;99861.31;5026539;28;20441;-62
2023/03/27 03:12:14;;;;;;;7.03;2.07;;;;;;;17.63;58.14;99862.53;5052593;28;20522;-62
2023/03/27 03:14:42;;;;;;;5.33;2.47;;;;;;;17.63;57.84;99881.66;5035910;28;20210;-62
2023/03/27 03:17:08;;;;;;;3.13;1.63;;;;;;;17.61;58.04;99887.75;5052256;28;20282;-63
2023/03/27 03:19:33;;;;;;;7.10;1.97;;;;;;;17.59;57.87;99884.47;5055055;28;20513;-62
2023/03/27 03:22:00;;;;;;;7.50;1.97;;;;;;;17.60;57.74;99894.69;5034277;28;20163;-62
2023/03/27 03:24:26;;;;;;;7.30;2.13;;;;;;;17.62;57.63;99903.69;5054453;28;20191;-62
2023/03/27 03:26:51;;;;;;;3.30;1.70;;;;;;;17.60;57.91;99914.66;5051131;28;20418;-62
2023/03/27 03:29:20;;;;;;;3.97;1.43;;;;;;;17.60;57.83;99914.66;5053377;28;20430;-62
2023/03/27 03:31:45;;;;;;;5.43;2.40;;;;;;;17.56;58.17;99922.34;5064519;28;20186;-62
2023/03/27 03:34:15;;;;;;;4.53;1.53;;;;;;;17.58;57.77;99919.09;5051770;28;20398;-62
2023/03/27 03:36:41;;;;;;;4.83;1.77;;;;;;;17.55;57.70;99932.13;5033662;28;20226;-62
2023/03/27 03:39:07;;;;;;;5.40;1.77;;;;;;;17.54;58.36;99941.06;5066044;28;20437;-63
2023/03/27 03:41:32;;;;;;;5.40;1.40;;;;;;;17.53;57.98;99942.28;5070693;28;20204;-62
2023/03/27 03:43:58;;;;;;;4.73;1.80;;;;;;;17.52;57.94;99955.72;5048111;28;20191;-62
2023/03/27 03:46:23;;;;;;;4.37;1.87;;;;;;;17.57;57.84;99958.25;5067662;28;20233;-62
2023/03/27 03:48:48;;;;;;;4.13;1.57;;;;;;;17.66;57.39;99964.50;5052713;28;20194;-62
2023/03/27 03:51:14;;;;;;;3.57;1.80;;;;;;;17.70;57.53;99970.28;5070560;28;20218;-63
2023/03/27 03:53:39;;;;;;;3.77;1.50;;;;;;;17.63;57.52;99965.28;5035593;28;20241;-62
2023/03/27 03:56:05;;;;;;;5.03;1.40;;;;;;;17.65;57.46;99974.28;5051025;28;20187;-63
2023/03/27 03:58:31;;;;;;;4.97;1.93;;;;;;;17.64;57.47;99977.50;5053809;28;20365;-63
2023/03/27 04:00:56;;;;;;;4.63;1.50;;;;;;;17.59;57.72;99981.53;5050824;28;20167;-62
2023/03/27 04:03:25;;;;;;;4.53;1.63;;;;;;;17.57;57.71;99986.81;5051053;28;20176;-65
2023/03/27 04:05:52;;;;;;;3.17;1.50;;;;;;;17.55;58.21;99989.19;5054569;28;20238;-63
2023/03/27 04:08:17;;;;;;;4.80;2.10;;;;;;;17.59;57.54;100010.06;5052302;28;20772;-63
2023/03/27 04:10:43;;;;;;;6.90;1.67;;;;;;;17.56;57.77;100019.38;5070565;28;20425;-63
2023/03/27 04:13:08;;;;;;;4.63;1.47;;;;;;;17.58;57.75;100027.56;5047407;28;20184;-63
2023/03/27 04:15:34;;;;;;;3.50;1.43;;;;;;;17.57;57.83;100032.47;5069379;28;20202;-63
2023/03/27 04:17:59;;;;;;;6.57;1.77;;;;;;;17.62;57.84;100051.31;5068590;28;20171;-63
2023/03/27 04:20:25;;;;;;;5.87;1.97;;;;;;;17.62;57.67;100052.13;5034111;28;20282;-63
2023/03/27 04:22:53;;;;;;;6.73;1.67;;;;;;;17.60;57.85;100060.25;5049487;28;20859;-63
2023/03/27 04:25:20;;;;;;;6.57;1.70;;;;;;;17.60;57.93;100051.69;5018755;28;20172;-63
2023/03/27 04:27:50;;;;;;;5.13;1.83;;;;;;;17.59;57.35;100070.00;5032100;28;20418;-63
2023/03/27 04:30:15;;;;;;;2.33;1.20;;;;;;;17.60;57.67;100073.69;5041411;28;20808;-63
2023/03/27 04:32:42;;;;;;;5.50;1.73;;;;;;;17.60;57.69;100080.22;5062205;28;20437;-63
2023/03/27 04:35:11;;;;;;;4.40;1.60;;;;;;;17.60;57.79;100090.84;5053002;28;20218;-63
2023/03/27 04:37:40;;;;;;;6.10;1.83;;;;;;;17.57;57.89;100095.28;5052580;28;20413;-63
2023/03/27 04:40:07;;;;;;;3.63;1.33;;;;;;;17.60;57.79;100099.41;5066820;28;20448;-63
2023/03/27 04:42:32;;;;;;;6.90;1.70;;;;;;;17.58;57.49;100110.34;5069732;28;20418;-63
2023/03/27 04:44:58;;;;;;;2.50;1.20;;;;;;;17.58;57.77;100101.78;5070108;28;20782;-63
2023/03/27 04:47:24;;;;;;;5.00;1.50;;;;;;;17.57;57.59;100109.53;5069285;28;20178;-63
2023/03/27 04:49:50;;;;;;;5.10;1.57;;;;;;;17.58;57.79;100119.75;5066790;28;20187;-63
2023/03/27 04:52:16;;;;;;;5.53;1.70;;;;;;;17.59;57.73;100129.97;5069454;28;20951;-63
2023/03/27 04:54:42;;;;;;;3.57;1.70;;;;;;;17.58;57.99;100136.88;5058885;28;20237;-63
2023/03/27 04:57:08;;;;;;;5.00;1.63;;;;;;;17.57;57.72;100143.78;5049826;28;20436;-63
2023/03/27 04:59:34;;;;;;;3.10;1.50;;;;;;;17.57;57.51;100148.66;5032214;28;20430;-63
2023/03/27 05:02:00;;;;;;;4.40;1.53;;;;;;;17.58;57.79;100154.00;5064583;28;20441;-63
2023/03/27 05:04:26;;;;;;;3.93;1.23;;;;;;;17.57;57.95;100169.47;5073377;28;20170;-63
2023/03/27 05:06:52;;;;;;;3.80;1.40;;;;;;;17.52;57.70;100166.94;5071815;28;20546;-63
2023/03/27 05:09:19;;;;;;;4.60;1.53;;;;;;;17.52;57.66;100188.94;5069689;28;20876;-63
2023/03/27 05:11:48;;;;;;;4.30;1.77;;;;;;;17.49;57.58;100189.69;5069511;28;20479;-63
2023/03/27 05:14:15;;;;;;;6.77;1.83;;;;;;;17.47;57.56;100192.94;5054300;28;20446;-63
2023/03/27 05:16:41;;;;;;;5.30;1.60;;;;;;;17.50;57.99;100197.88;5049925;28;20454;-63
2023/03/27 05:19:06;;;;;;;4.63;1.90;;;;;;;17.56;57.31;100204.91;5054958;28;20498;-63
2023/03/27 05:21:32;;;;;;;4.00;1.73;;;;;;;17.62;57.00;100212.00;5069221;28;20167;-63
2023/03/27 05:23:57;;;;;;;3.80;1.50;;;;;;;17.57;57.30;100211.47;5063845;28;20631;-63
2023/03/27 05:26:23;;;;;;;3.67;1.40;;;;;;;17.64;57.12;100231.56;5046402;28;20549;-63
2023/03/27 05:28:50;;;;;;;4.60;2.00;;;;;;;17.65;57.13;100242.63;5047691;28;20179;-63
2023/03/27 05:31:15;;;;;;;6.53;1.83;;;;;;;17.59;57.26;100249.84;5063756;28;20194;-63
2023/03/27 05:33:40;;;;;;;3.80;1.50;;;;;;;17.58;57.34;100259.63;5069016;28;20416;-63
2023/03/27 05:36:06;;;;;;;3.70;1.80;;;;;;;17.55;57.59;100280.34;5063221;28;20234;-63
2023/03/27 05:38:32;;;;;;;3.13;1.53;;;;;;;17.55;57.70;100282.38;5048972;28;20187;-64
2023/03/27 05:40:58;;;;;;;6.53;2.00;;;;;;;17.52;57.34;100286.81;5049205;28;20176;-63
2023/03/27 05:43:24;;;;;;;6.07;1.80;;;;;;;17.54;57.26;100301.53;5033942;28;20191;-63
2023/03/27 05:45:49;;;;;;;4.60;1.50;;;;;;;17.53;57.28;100308.44;5031412;28;20437;-63
2023/03/27 05:48:15;;;;;;;3.63;1.40;;;;;;;17.55;57.40;100311.75;5051349;28;20233;-63
2023/03/27 05:50:41;;;;;;;7.93;1.53;;;;;;;17.58;57.18;100319.56;5057512;28;20175;-63
2023/03/27 05:53:08;;;;;;;5.97;1.30;;;;;;;17.59;57.09;100328.94;5068083;28;20171;-63
2023/03/27 05:55:34;;;;;;;5.67;1.80;;;;;;;17.58;57.57;100333.00;5065623;28;20276;-63
2023/03/27 05:58:00;;;;;;;3.80;1.77;;;;;;;17.59;57.56;100348.91;5050733;28;20518;-64
2023/03/27 06:00:26;;;;;;;9.60;1.30;;;;;;;17.57;57.33;100351.34;5050579;28;20794;-64
2023/03/27 06:02:59;;;;;;;4.53;1.50;;;;;;;17.55;57.42;100360.25;5038126;28;20288;-64
2023/03/27 06:05:25;;;;;;;3.57;1.53;;;;;;;17.57;57.05;100369.31;5067178;28;20453;-64
2023/03/27 06:07:51;;;;;;;3.40;1.30;;;;;;;17.57;57.78;100377.88;5064824;28;20951;-64
2023/03/27 06:10:16;;;;;;;5.33;1.33;;;;;;;17.57;57.26;100377.03;5048896;28;20414;-64
2023/03/27 06:12:43;;;;;;;4.97;1.40;;;;;;;17.57;57.39;100386.44;5030977;28;20180;-64
2023/03/27 06:15:09;;;;;;;3.17;1.23;;;;;;;17.56;57.41;100381.09;5051012;28;20199;-64
2023/03/27 06:17:35;;;;;;;5.23;1.83;;;;;;;17.56;57.46;100389.66;5048927;28;20414;-65
2023/03/27 06:20:09;;;;;;;3.37;1.50;;;;;;;17.55;57.21;100388.81;5062088;28;20448;-64
2023/03/27 06:22:46;;;;;;;3.53;1.77;;;;;;;17.55;57.46;100399.41;5068887;28;20830;-64
2023/03/27 06:25:12;;;;;;;3.13;1.40;;;;;;;17.54;57.42;100415.69;5057294;28;20517;-64
2023/03/27 06:27:46;;;;;;;3.90;1.77;;;;;;;17.57;57.19;100425.56;5049539;28;20410;-64
2023/03/27 06:30:13;;;;;;;3.87;1.50;;;;;;;17.56;57.46;100429.63;5050273;28;20478;-64
2023/03/27 06:32:46;;;;;;;2.83;1.23;;;;;;;17.54;57.32;100438.53;5054590;28;20899;-64
2023/03/27 06:35:13;;;;;;;4.10;1.50;;;;;;;17.56;57.24;100444.69;5070564;28;20606;-64
2023/03/27 06:37:44;;;;;;;3.10;1.27;;;;;;;17.51;57.14;100442.13;5036661;28;20521;-64
2023/03/27 06:40:18;;;;;;;4.67;1.40;;;;;;;17.51;56.95;100450.69;5052475;28;20850;-64
2023/03/27 06:42:51;;;;;;;4.07;1.40;;;;;;;17.46;57.29;100453.81;5062922;28;20421;-64
2023/03/27 06:45:17;;;;;;;3.77;1.27;;;;;;;17.49;57.45;100452.25;5048601;28;20500;-64
2023/03/27 06:47:52;;;;;;;2.90;1.30;;;;;;;17.54;57.10;100460.53;5034459;28;20426;-64
2023/03/27 06:50:17;;;;;;;3.43;1.37;;;;;;;17.56;56.80;100463.88;5034561;28;20160;-64
2023/03/27 06:52:43;;;;;;;9.50;1.97;;;;;;;17.58;56.68;100467.16;5068859;28;20461;-64
2023/03/27 06:55:08;;;;;;;4.50;1.40;;;;;;;17.58;56.76;100473.72;5052857;28;20233;-63
2023/03/27 06:57:34;;;;;;;2.83;1.13;;;;;;;17.57;56.76;100474.09;5061376;28;20190;-64
2023/03/27 07:00:00;;;;;;;5.13;2.07;;;;;;;17.58;56.75;100473.72;5051096;28;20172;-64
2023/03/27 07:02:25;;;;;;;2.90;1.13;;;;;;;17.62;56.83;100486.06;5033852;28;20971;-64
2023/03/27 07:04:51;;;;;;;4.47;1.23;;;;;;;17.57;56.77;100494.91;5064951;28;20205;-64
2023/03/27 07:07:16;;;;;;;3.23;1.50;;;;;;;17.58;57.03;100495.72;5071110;28;20225;-63
2023/03/27 07:09:42;;;;;;;2.97;1.37;;;;;;;17.54;57.09;100501.34;5042145;28;20241;-64
2023/03/27 07:12:10;;;;;;;4.67;1.30;;;;;;;17.54;57.10;100500.50;5051480;28;20627;-64
2023/03/27 07:14:35;;;;;;;6.83;2.00;;;;;;;17.53;57.30;100511.09;5035225;28;20186;-64
2023/03/27 07:17:01;;;;;;;2.63;1.20;;;;;;;17.54;57.31;100512.75;5051252;28;20434;-64
2023/03/27 07:19:26;;;;;;;2.80;1.00;;;;;;;17.55;56.97;100525.03;5050295;28;20171;-64
2023/03/27 07:21:52;;;;;;;4.77;1.60;;;;;;;17.57;57.36;100528.31;5071833;28;20623;-64
2023/03/27 07:24:17;;;;;;;4.63;1.07;;;;;;;17.58;56.78;100536.53;5067846;28;20601;-64
2023/03/27 07:26:43;;;;;;;5.33;1.60;;;;;;;17.57;56.77;100537.72;5071303;28;20183;-64
2023/03/27 07:29:09;;;;;;;4.00;1.30;;;;;;;17.59;57.13;100543.03;5063766;28;20187;-64
2023/03/27 07:31:35;;;;;;;3.93;1.33;;;;;;;17.59;57.01;100558.16;5056166;28;20190;-64
2023/03/27 07:34:01;;;;;;;3.60;1.07;;;;;;;17.59;56.90;100549.59;5050033;28;20457;-64
2023/03/27 07:36:27;;;;;;;3.57;1.37;;;;;;;17.59;56.79;100558.16;5083563;28;20484;-64
2023/03/27 07:38:53;;;;;;;5.50;1.60;;;;;;;17.56;56.97;100558.06;5081495;28;20188;-64
2023/03/27 07:41:18;;;;;;;4.00;1.50;;;;;;;17.56;56.73;100563.78;5062686;28;20191;-64
2023/03/27 07:43:44;;;;;;;2.60;1.20;;;;;;;17.56;57.08;100567.44;5063353;28;20172;-64
2023/03/27 07:46:09;;;;;;;4.40;1.90;;;;;;;17.55;56.90;100564.97;5062854;28;20191;-64
2023/03/27 07:48:35;;;;;;;3.50;1.67;;;;;;;17.55;57.11;100574.34;5066155;28;20678;-64
2023/03/27 07:51:01;;;;;;;4.00;1.40;;;;;;;17.58;56.88;100569.94;5078518;28;20234;-64
2023/03/27 07:53:27;;;;;;;4.00;1.10;;;;;;;17.57;57.03;100574.84;5062695;28;20638;-64
2023/03/27 07:55:53;;;;;;;2.10;1.03;;;;;;;17.58;56.83;100575.66;5064577;28;20454;-64
2023/03/27 07:58:20;;;;;;;3.00;1.20;;;;;;;17.55;56.96;100587.81;5068756;28;20405;-64
2023/03/27 08:00:50;;;;;;;2.73;1.17;;;;;;;17.56;57.24;100595.19;5071715;28;20442;-64
2023/03/27 08:03:16;;;;;;;6.17;1.50;;;;;;;17.57;56.64;100594.81;5063016;28;20402;-64
2023/03/27 08:05:41;;;;;;;2.93;1.10;;;;;;;17.56;56.89;100596.00;5088335;28;20499;-64
2023/03/27 08:08:08;;;;;;;3.47;1.40;;;;;;;17.55;56.76;100594.34;5064770;28;20912;-64
2023/03/27 08:10:34;;;;;;;3.70;1.20;;;;;;;17.53;56.80;100604.47;5047199;28;20167;-64
2023/03/27 08:12:59;;;;;;;5.20;1.40;;;;;;;17.50;56.92;100608.88;5047811;28;20494;-64
2023/03/27 08:15:25;;;;;;;3.50;1.30;;;;;;;17.48;56.99;100611.28;5042537;28;20190;-64
2023/03/27 08:17:53;;;;;;;4.00;1.10;;;;;;;17.46;57.20;100619.38;5063987;28;20623;-64
2023/03/27 08:20:19;;;;;;;3.97;1.37;;;;;;;17.50;56.62;100637.44;5073937;28;20168;-64
2023/03/27 08:22:45;;;;;;;2.83;1.20;;;;;;;17.54;57.16;100620.38;5065469;28;20469;-64
2023/03/27 08:25:11;;;;;;;3.43;1.60;;;;;;;17.62;56.62;100623.09;5073476;28;20437;-64
2023/03/27 08:27:37;;;;;;;2.60;1.10;;;;;;;17.59;56.34;100623.81;5065667;28;20202;-64
2023/03/27 08:30:03;;;;;;;2.67;1.33;;;;;;;17.60;56.59;100631.19;5059651;28;20521;-64
2023/03/27 08:32:28;;;;;;;2.90;1.20;;;;;;;17.55;56.58;100640.00;5064497;28;20171;-64
2023/03/27 08:34:54;;;;;;;2.60;1.13;;;;;;;17.58;56.76;100636.44;5064736;28;20966;-64
2023/03/27 08:37:19;;;;;;;3.33;1.23;;;;;;;17.55;56.68;100644.91;5084660;28;20634;-64
2023/03/27 08:39:45;;;;;;;4.60;1.20;;;;;;;17.59;56.63;100635.22;5082955;28;20195;-64
2023/03/27 08:42:19;;;;;;;3.27;1.10;;;;;;;17.55;56.91;100644.91;5086482;28;20160;-64
2023/03/27 08:44:45;;;;;;;2.20;1.27;;;;;;;17.53;57.01;100648.13;5082605;28;20193;-64
2023/03/27 08:47:21;;;;;;;4.00;1.40;;;;;;;17.55;57.16;100651.44;5081732;28;20430;-64
2023/03/27 08:49:55;;;;;;;5.13;1.67;;;;;;;17.56;56.77;100655.13;5050008;28;20467;-64
2023/03/27 08:52:25;;;;;;;3.90;1.83;;;;;;;17.57;56.41;100659.63;5082162;28;20510;-64
2023/03/27 08:54:56;;;;;;;2.10;1.00;;;;;;;17.56;57.04;100667.34;5052575;28;20449;-64
2023/03/27 08:57:22;;;;;;;2.60;1.00;;;;;;;17.56;56.68;100658.78;5027229;28;20468;-64
2023/03/27 08:59:58;;;;;;;2.57;1.20;;;;;;;17.59;56.96;100674.34;5046822;28;20437;-64
2023/03/27 09:02:27;;;;;;;3.97;1.40;;;;;;;17.59;56.56;100680.06;5080277;28;20421;-64
2023/03/27 09:04:59;;;;;;;2.13;1.07;;;;;;;17.58;56.68;100676.41;5089619;28;20408;-64
2023/03/27 09:07:38;;;;;;;2.37;1.30;;;;;;;17.58;56.63;100684.97;5043166;28;20794;-64
2023/03/27 09:10:25;;;;;;;4.13;1.63;;;;;;;17.60;56.60;100681.75;5042544;28;20410;-64
2023/03/27 09:13:32;;;;;;;3.17;1.27;;;;;;;17.58;56.63;100678.41;5045672;28;20449;-64
2023/03/27 09:16:02;;;;;;;2.33;1.10;;;;;;;17.60;56.86;100681.75;5000390;28;20477;-64
2023/03/27 09:18:40;;;;;;;3.63;1.13;;;;;;;17.57;56.68;100697.59;5052351;28;20795;-64
2023/03/27 09:21:12;;;;;;;4.27;1.30;;;;;;;17.58;57.14;100687.81;5063151;28;20405;-64
2023/03/27 09:23:42;;;;;;;5.53;1.23;;;;;;;17.59;56.63;100689.47;5061072;28;20523;-64
2023/03/27 09:26:21;;;;;;;3.03;1.23;;;;;;;17.55;56.80;100688.53;5076759;28;20879;-65
2023/03/27 09:28:50;;;;;;;19.83;3.37;;;;;;;17.54;56.41;100692.59;5055267;28;20413;-65
2023/03/27 09:31:19;;;;;;;15.10;2.27;;;;;;;17.55;56.69;100691.41;5072304;28;20415;-65
2023/03/27 09:33:44;;;;;;;15.73;2.37;;;;;;;17.57;57.02;100691.88;5069004;28;20839;-63
2023/03/27 09:36:10;;;;;;;17.33;2.93;;;;;;;17.55;56.64;100702.81;5066435;28;20456;-64
2023/03/27 09:38:37;;;;;;;16.87;2.70;;;;;;;17.51;56.21;100707.59;5058143;28;20167;-64
2023/03/27 09:41:06;;;;;;;10.93;1.70;;;;;;;17.48;55.58;100696.91;5041281;28;20273;-63
2023/03/27 09:43:58;;;;;;;5.00;1.30;;;;;;;17.45;54.98;100703.34;5034390;28;20529;-63
2023/03/27 09:46:24;;;;;;;12.40;2.07;;;;;;;17.49;54.77;100707.13;5035160;28;20929;-64
2023/03/27 09:49:18;;;;;;;18.23;1.97;;;;;;;17.53;54.57;100710.09;5031057;28;20457;-64
2023/03/27 09:51:45;;;;;;;10.30;1.97;;;;;;;17.54;54.44;100715.44;5043896;28;20549;-63
2023/03/27 09:54:13;;;;;;;5.53;1.73;;;;;;;17.59;54.27;100718.03;5059579;28;20480;-63
2023/03/27 09:57:11;;;;;;;13.97;2.17;;;;;;;17.62;54.36;100723.03;5056239;28;20491;-63
2023/03/27 09:59:38;;;;;;;16.40;2.73;;;;;;;17.62;54.30;100720.16;5041415;28;20952;-64
2023/03/27 10:02:24;;;;;;;16.47;2.73;;;;;;;17.67;53.96;100722.75;5055048;28;20441;-63
2023/03/27 10:05:17;;;;;;;12.87;1.87;;;;;;;17.63;54.22;100726.69;5064116;28;20419;-63
2023/03/27 10:07:43;;;;;;;20.40;3.03;;;;;;;17.63;54.64;100721.81;5052137;28;20453;-64
2023/03/27 10:10:16;;;;;;;14.43;2.07;;;;;;;17.76;54.58;100731.97;5059231;28;20418;-64
2023/03/27 10:12:42;;;;;;;19.47;3.10;;;;;;;17.72;54.75;100719.63;5063684;28;20179;-63
2023/03/27 10:15:30;;;;;;;14.67;1.67;;;;;;;17.67;54.79;100725.63;5077592;28;20609;-64
2023/03/27 10:17:55;;;;;;;13.80;2.63;;;;;;;17.63;54.99;100721.81;5058672;28;20179;-64
2023/03/27 10:20:21;;;;;;;16.13;2.27;;;;;;;17.62;55.16;100725.03;5051183;28;21056;-64
2023/03/27 10:22:51;;;;;;;25.80;2.50;;;;;;;17.60;54.83;100733.16;5056890;28;20176;-64
2023/03/27 10:25:18;;;;;;;10.07;2.50;;;;;;;17.58;55.14;100729.81;5059983;28;20160;-64
2023/03/27 10:27:43;;;;;;;22.00;2.43;;;;;;;17.60;55.08;100728.25;5065472;28;20433;-64
2023/03/27 10:30:33;;;;;;;18.00;2.80;;;;;;;17.54;55.11;100732.56;5069700;28;20438;-64
2023/03/27 10:32:58;;;;;;;10.40;2.67;;;;;;;17.52;55.39;100732.09;5057250;28;20192;-64
2023/03/27 10:35:30;;;;;;;15.37;2.53;;;;;;;17.49;55.19;100732.81;5083113;28;20561;-64
2023/03/27 10:37:55;;;;;;;13.67;2.90;;;;;;;17.47;54.97;100728.66;5066028;28;20945;-64
2023/03/27 10:40:25;;;;;;;15.27;2.33;;;;;;;17.46;55.45;100739.25;5067116;28;20422;-64
2023/03/27 10:42:56;;;;;;;11.30;2.73;;;;;;;17.47;55.07;100743.78;5058123;28;20441;-63
2023/03/27 10:45:22;;;;;;;9.30;2.13;;;;;;;17.51;54.87;100741.03;5062437;28;20980;-64
2023/03/27 10:47:49;;;;;;;8.97;2.73;;;;;;;17.50;55.01;100747.94;5052100;28;20475;-63
2023/03/27 10:50:29;;;;;;;11.60;3.03;;;;;;;17.51;54.64;100746.75;5067556;28;20176;-63
2023/03/27 10:53:18;;;;;;;14.83;2.53;;;;;;;17.48;54.72;100742.59;5051132;28;20438;-64
2023/03/27 10:56:05;;;;;;;17.60;2.80;;;;;;;17.50;54.90;100740.19;5054409;28;20962;-63
2023/03/27 10:58:33;;;;;;;17.80;2.80;;;;;;;17.53;55.17;100742.31;5056581;28;20440;-64
2023/03/27 11:01:12;;;;;;;31.37;3.57;;;;;;;17.49;55.10;100749.94;5061270;28;20458;-63
2023/03/27 11:03:46;;;;;;;23.80;3.47;;;;;;;17.54;53.99;100743.13;5077038;28;20421;-63
2023/03/27 11:06:14;;;;;;;31.73;2.70;;;;;;;17.52;53.86;100743.53;5077659;28;20476;-63
2023/03/27 11:08:48;;;;;;;21.43;3.07;;;;;;;17.52;54.37;100743.53;5044395;28;20955;-63
2023/03/27 11:11:19;;;;;;;18.87;3.13;;;;;;;17.52;54.18;100746.38;5038769;28;20495;-63
2023/03/27 11:13:45;;;;;;;18.67;2.73;;;;;;;17.52;54.18;100749.25;5038434;28;20433;-64
2023/03/27 11:16:37;;;;;;;15.00;3.53;;;;;;;17.53;54.14;100745.19;5052529;28;20556;-64
2023/03/27 11:19:15;;;;;;;19.63;3.20;;;;;;;17.58;54.11;100752.66;5073388;28;20191;-64
2023/03/27 11:21:51;;;;;;;21.07;4.07;;;;;;;17.58;53.99;100753.50;5057484;28;20483;-64
2023/03/27 11:24:47;;;;;;;24.37;3.80;;;;;;;17.56;54.10;100743.63;5062508;28;20436;-64
2023/03/27 11:27:15;;;;;;;25.33;3.73;;;;;;;17.56;54.05;100753.00;5081711;28;20471;-65
2023/03/27 11:30:13;;;;;;;17.77;2.90;;;;;;;17.52;54.33;100746.38;5045467;28;20456;-64
2023/03/27 11:32:47;;;;;;;16.60;3.50;;;;;;;17.55;54.45;100748.50;5032060;28;20910;-64
2023/03/27 11:35:17;;;;;;;17.53;3.00;;;;;;;17.55;54.34;100754.19;5030971;28;20497;-64
2023/03/27 11:37:54;;;;;;;20.70;2.50;;;;;;;17.54;54.33;100763.97;5050650;28;20811;-64
2023/03/27 11:40:35;;;;;;;22.60;3.37;;;;;;;17.52;54.77;100766.38;5080976;28;20417;-64